This is the latest recevied weather packets stored in our database for station/object WI5ARD. If no packets are shown the sender has not sent any weather packets the latest 10 day(s).
| Time | Temp. | Humidity | Pressure | Rain* | Wind** | Luminosity | Snow |
|---|---|---|---|---|---|---|---|
| 1777514441 | 19.44° C | 94% | 1015.3 hPa | 0 mm | - | 0 W/m² | - |
| 1777513822 | 19.44° C | 94% | 1015 hPa | 0 mm | - | 0 W/m² | - |
| 1777512920 | 19.44° C | 94% | 1015.2 hPa | 0.25 mm | - | 0 W/m² | - |
| 1777504543 | 26.67° C | 79% | 1012.8 hPa | 0 mm | - | 0 W/m² | - |
| 1777503319 | 26.67° C | 78% | 1012.7 hPa | 0 mm | - | 11 W/m² | - |
| 1777503019 | 26.67° C | 78% | 1012.6 hPa | 0 mm | - | 14 W/m² | - |
| 1777501519 | 27.22° C | 77% | 1012.3 hPa | 0 mm | - | 39 W/m² | - |
| 1777500939 | 27.22° C | 76% | 1012.1 hPa | 0 mm | - | 84 W/m² | - |
| 1777500041 | 27.22° C | 75% | 1011.8 hPa | 0 mm | - | 91 W/m² | - |
| 1777497622 | 27.78° C | 72% | 1012.3 hPa | 0 mm | - | 158 W/m² | - |
| 1777496721 | 27.78° C | 71% | 1012.5 hPa | 0 mm | - | 216 W/m² | - |
| 1777495821 | 28.33° C | 71% | 1012.7 hPa | 0 mm | - | 248 W/m² | - |
| 1777493122 | 28.89° C | 70% | 1012.9 hPa | 0 mm | - | 990 W/m² | - |
| 1777491627 | 28.89° C | 69% | 1013.9 hPa | 0 mm | - | 724 W/m² | - |
| 1777488920 | 28.89° C | 68% | 1014.3 hPa | 0 mm | - | 946 W/m² | - |
| 1777488019 | 28.89° C | 69% | 1014.7 hPa | 0 mm | - | 960 W/m² | - |
| 1777486823 | 28.89° C | 68% | 1015.1 hPa | 0 mm | - | 986 W/m² | - |
| 1777485638 | 28.89° C | 69% | 1015.6 hPa | 0 mm | - | 1030 W/m² | - |
| 1777485020 | 28.33° C | 71% | 1015.6 hPa | 0 mm | - | 1160 W/m² | - |
| 1777484420 | 28.33° C | 71% | 1015.7 hPa | 0 mm | - | 756 W/m² | - |
| 1777483840 | 28.33° C | 71% | 1016 hPa | 0 mm | - | 1021 W/m² | - |
| 1777482619 | 28.33° C | 71% | 1016.2 hPa | 0 mm | - | 1144 W/m² | - |
| 1777482035 | 27.78° C | 73% | 1016.3 hPa | 0 mm | - | 1020 W/m² | - |
| 1777481722 | 27.78° C | 74% | 1016.4 hPa | 0 mm | - | 403 W/m² | - |
| 1777481150 | 27.78° C | 72% | 1016.5 hPa | 0 mm | - | 316 W/m² | - |
* Rain latest hour (hover to see other rain measurements)
** Current wind speed in m/s (hover to see current wind gust speed)